Time;durP1;ratioP1;P1;durP2;ratioP2;P2;SDS_P1;SDS_P2;PMS_P1;PMS_P2;Temp;Humidity;BMP_temperature;BMP_pressure;BME280_temperature;BME280_humidity;BME280_pressure;Samples;Min_cycle;Max_cycle;Signal;HPM_P1;HPM_P2
2023/07/07 00:01:09;;;;;;;1.95;1.75;;;27.60;60.70;;;;;;5014371;28;20452;-74
2023/07/07 00:03:35;;;;;;;2.35;2.10;;;27.60;60.80;;;;;;5014826;28;20062;-74
2023/07/07 00:06:01;;;;;;;2.88;1.98;;;27.50;60.90;;;;;;5014562;28;20057;-75
2023/07/07 00:08:27;;;;;;;2.03;1.92;;;27.50;61.10;;;;;;5012757;28;20109;-74
2023/07/07 00:10:53;;;;;;;2.88;2.10;;;27.40;61.10;;;;;;5014289;28;20180;-74
2023/07/07 00:13:20;;;;;;;2.20;2.00;;;27.40;61.20;;;;;;5013975;28;20025;-74
2023/07/07 00:15:46;;;;;;;2.40;2.20;;;27.40;61.30;;;;;;5012833;28;20034;-74
2023/07/07 00:18:26;;;;;;;1.92;1.83;;;27.40;61.40;;;;;;5014088;28;20065;-74
2023/07/07 00:20:59;;;;;;;2.92;2.45;;;27.30;61.40;;;;;;5014205;28;20044;-74
2023/07/07 00:23:26;;;;;;;2.13;1.98;;;27.30;61.60;;;;;;5013956;28;20476;-74
2023/07/07 00:26:03;;;;;;;2.35;2.00;;;27.30;61.60;;;;;;5012736;28;20112;-74
2023/07/07 00:28:30;;;;;;;2.25;2.05;;;27.30;61.70;;;;;;5014095;28;20026;-75
2023/07/07 00:30:55;;;;;;;2.63;2.10;;;27.20;61.60;;;;;;5013876;28;20104;-74
2023/07/07 00:33:21;;;;;;;2.80;2.35;;;27.20;61.70;;;;;;5013663;28;20599;-74
2023/07/07 00:35:48;;;;;;;2.17;1.83;;;27.20;61.70;;;;;;5013493;28;20048;-73
2023/07/07 00:38:14;;;;;;;2.45;2.22;;;27.20;61.80;;;;;;5013774;28;20030;-73
2023/07/07 00:40:41;;;;;;;2.60;2.08;;;27.20;61.80;;;;;;5013349;28;20026;-73
2023/07/07 00:43:17;;;;;;;2.30;2.05;;;27.20;61.90;;;;;;5012263;28;20076;-73
2023/07/07 00:45:44;;;;;;;2.30;2.10;;;27.20;62.10;;;;;;5013348;28;20409;-73
2023/07/07 00:48:20;;;;;;;2.38;2.08;;;27.10;62.50;;;;;;5013752;28;20033;-74
2023/07/07 00:50:54;;;;;;;2.40;2.20;;;27.20;62.10;;;;;;5013429;28;20021;-74
2023/07/07 00:53:21;;;;;;;2.00;1.90;;;27.20;62.20;;;;;;5014075;28;20026;-74
2023/07/07 00:55:50;;;;;;;2.17;2.05;;;27.10;62.10;;;;;;5013535;28;20114;-74
2023/07/07 00:58:20;;;;;;;2.03;1.83;;;27.10;62.20;;;;;;5013760;28;20025;-74
2023/07/07 01:00:52;;;;;;;2.28;1.98;;;27.10;62.20;;;;;;5013489;28;20088;-73
2023/07/07 01:03:27;;;;;;;2.15;2.03;;;27.10;62.20;;;;;;5012148;28;20030;-73
2023/07/07 01:05:55;;;;;;;1.83;1.70;;;27.10;62.20;;;;;;5013390;28;20030;-75
2023/07/07 01:08:21;;;;;;;3.42;2.03;;;27.10;62.20;;;;;;5012709;28;20121;-73
2023/07/07 01:10:47;;;;;;;2.20;2.00;;;27.10;62.30;;;;;;5013352;28;20076;-74
2023/07/07 01:13:13;;;;;;;2.60;2.10;;;27.10;62.30;;;;;;5013271;28;20424;-73
2023/07/07 01:16:00;;;;;;;2.72;2.00;;;27.10;62.30;;;;;;5011738;28;20043;-74
2023/07/07 01:18:39;;;;;;;2.67;2.20;;;27.10;62.50;;;;;;4996376;28;20033;-75
2023/07/07 01:21:31;;;;;;;2.95;2.10;;;27.10;62.40;;;;;;5011978;28;20437;-74
2023/07/07 01:24:24;;;;;;;3.80;2.00;;;27.10;62.40;;;;;;5013202;28;20025;-74
2023/07/07 01:27:04;;;;;;;2.50;1.95;;;27.10;62.50;;;;;;5013341;28;20349;-73
2023/07/07 01:30:05;;;;;;;2.20;2.00;;;27.10;62.50;;;;;;5013130;28;20030;-73
2023/07/07 01:32:33;;;;;;;2.22;2.00;;;27.10;62.80;;;;;;5011716;28;20472;-74
2023/07/07 01:35:03;;;;;;;2.25;1.90;;;27.10;62.50;;;;;;5012843;28;20368;-73
2023/07/07 01:37:29;;;;;;;2.13;1.92;;;27.00;62.50;;;;;;5013222;28;20038;-73
2023/07/07 01:39:55;;;;;;;2.13;1.92;;;27.00;62.60;;;;;;5013012;28;20025;-74
2023/07/07 01:42:36;;;;;;;2.20;2.00;;;27.00;62.60;;;;;;5012977;28;20033;-74
2023/07/07 01:45:14;;;;;;;2.03;1.85;;;27.00;62.60;;;;;;5012775;28;20464;-74
2023/07/07 01:47:49;;;;;;;2.45;1.85;;;27.00;62.80;;;;;;5012724;28;20050;-74
2023/07/07 01:50:25;;;;;;;2.20;2.00;;;27.00;62.70;;;;;;5013208;28;20026;-74
2023/07/07 01:53:02;;;;;;;1.95;1.85;;;27.00;62.70;;;;;;5012878;28;20160;-74
2023/07/07 01:55:35;;;;;;;2.25;2.05;;;27.00;62.70;;;;;;5012661;28;20105;-74
2023/07/07 01:58:04;;;;;;;1.90;1.80;;;27.00;62.70;;;;;;5013061;28;20018;-74
2023/07/07 02:00:31;;;;;;;1.92;1.80;;;27.00;62.60;;;;;;5012884;28;20037;-74
2023/07/07 02:02:58;;;;;;;2.40;2.20;;;27.00;62.70;;;;;;5012932;28;20022;-74
2023/07/07 02:05:25;;;;;;;2.65;1.90;;;27.00;62.70;;;;;;5012935;28;20044;-74
2023/07/07 02:07:51;;;;;;;2.30;2.10;;;27.00;62.70;;;;;;5011568;28;20116;-74
2023/07/07 02:10:17;;;;;;;2.40;2.17;;;27.00;62.70;;;;;;5013109;28;20480;-74
2023/07/07 02:12:43;;;;;;;2.17;1.98;;;27.00;62.70;;;;;;5012592;28;20028;-74
2023/07/07 02:15:09;;;;;;;2.72;2.00;;;27.00;62.70;;;;;;5012890;28;20053;-74
2023/07/07 02:17:34;;;;;;;2.58;2.00;;;27.00;62.70;;;;;;5012779;28;20050;-74
2023/07/07 02:20:00;;;;;;;2.10;1.90;;;27.00;62.70;;;;;;5015936;28;20033;-74
2023/07/07 02:22:27;;;;;;;2.22;2.00;;;27.10;62.80;;;;;;5015977;28;20069;-74
2023/07/07 02:24:52;;;;;;;2.42;2.20;;;27.10;62.70;;;;;;5015978;28;20050;-73
2023/07/07 02:27:18;;;;;;;3.25;2.10;;;27.10;62.70;;;;;;5016472;28;20040;-73
2023/07/07 02:29:44;;;;;;;2.75;2.22;;;27.00;62.70;;;;;;5015909;28;20034;-74
2023/07/07 02:32:09;;;;;;;2.30;2.10;;;27.00;62.70;;;;;;5014973;28;20026;-72
2023/07/07 02:34:35;;;;;;;2.05;1.85;;;27.00;62.80;;;;;;5016010;28;20114;-73
2023/07/07 02:37:01;;;;;;;2.67;2.20;;;27.00;62.80;;;;;;5014572;28;20092;-74
2023/07/07 02:39:28;;;;;;;2.17;2.00;;;27.00;62.90;;;;;;5015667;28;20069;-74
2023/07/07 02:41:53;;;;;;;2.95;2.35;;;27.00;62.90;;;;;;5014527;28;20026;-73
2023/07/07 02:44:20;;;;;;;2.13;1.98;;;27.00;62.90;;;;;;5015811;28;20469;-73
2023/07/07 02:46:45;;;;;;;2.30;2.10;;;27.00;62.90;;;;;;5015403;28;20119;-71
2023/07/07 02:49:11;;;;;;;3.08;2.05;;;27.00;63.00;;;;;;5015590;28;20105;-73
2023/07/07 02:51:37;;;;;;;1.95;1.77;;;27.00;63.00;;;;;;5015692;28;20069;-73
2023/07/07 02:54:03;;;;;;;2.20;2.00;;;27.00;63.00;;;;;;5015380;28;20479;-73
2023/07/07 02:56:29;;;;;;;3.03;2.10;;;27.00;63.00;;;;;;5014589;28;20049;-73
2023/07/07 02:58:55;;;;;;;2.65;1.92;;;27.00;63.00;;;;;;5015544;28;20030;-73
2023/07/07 03:01:23;;;;;;;4.03;2.00;;;27.10;63.10;;;;;;5014231;28;20030;-74
2023/07/07 03:03:50;;;;;;;1.80;1.70;;;27.10;63.10;;;;;;5015398;28;20361;-73
2023/07/07 03:06:21;;;;;;;1.92;1.83;;;27.10;63.10;;;;;;5014144;28;20034;-73
2023/07/07 03:08:48;;;;;;;2.15;2.00;;;27.10;63.10;;;;;;5015381;28;20025;-73
2023/07/07 03:11:17;;;;;;;2.53;2.33;;;27.10;63.20;;;;;;5015368;28;20036;-73
2023/07/07 03:13:45;;;;;;;2.22;2.03;;;27.10;63.20;;;;;;4997632;28;20128;-73
2023/07/07 03:16:20;;;;;;;2.60;2.00;;;27.10;63.30;;;;;;5015157;28;20037;-72
2023/07/07 03:18:55;;;;;;;2.25;2.05;;;27.10;63.30;;;;;;5030406;28;20030;-72
2023/07/07 03:21:21;;;;;;;2.63;2.15;;;27.10;63.40;;;;;;5015400;28;20101;-73
2023/07/07 03:23:50;;;;;;;1.95;1.80;;;27.10;63.40;;;;;;5014947;28;20460;-73
2023/07/07 03:26:17;;;;;;;2.45;2.20;;;27.20;63.50;;;;;;5015103;28;20457;-73
2023/07/07 03:28:43;;;;;;;1.90;1.80;;;27.20;63.40;;;;;;5013621;28;20411;-74
2023/07/07 03:31:10;;;;;;;2.22;2.03;;;27.20;63.40;;;;;;5014339;28;20037;-73
2023/07/07 03:33:38;;;;;;;3.35;1.90;;;27.20;63.40;;;;;;5014603;28;20469;-73
2023/07/07 03:36:04;;;;;;;2.65;1.92;;;27.20;63.30;;;;;;5013450;28;20065;-73
2023/07/07 03:38:30;;;;;;;2.53;2.10;;;27.30;63.40;;;;;;5013723;28;20030;-73
2023/07/07 03:40:56;;;;;;;2.10;2.00;;;27.30;63.40;;;;;;5014813;28;20104;-72
2023/07/07 03:43:22;;;;;;;2.28;2.08;;;27.30;63.30;;;;;;5014980;28;20026;-73
2023/07/07 03:45:47;;;;;;;2.25;2.05;;;27.30;63.30;;;;;;5014235;28;20054;-73
2023/07/07 03:48:13;;;;;;;2.30;2.00;;;27.30;63.30;;;;;;5013071;28;20079;-73
2023/07/07 03:50:39;;;;;;;2.35;2.15;;;27.40;63.30;;;;;;5014414;28;20358;-74
2023/07/07 03:53:04;;;;;;;2.08;1.98;;;27.40;63.30;;;;;;5014497;28;20180;-74
2023/07/07 03:55:30;;;;;;;2.42;2.20;;;27.30;63.30;;;;;;5014525;28;20025;-73
2023/07/07 03:57:56;;;;;;;2.20;2.00;;;27.30;63.40;;;;;;5013104;28;20380;-73
2023/07/07 04:00:22;;;;;;;2.53;2.25;;;27.40;63.40;;;;;;5014466;28;20034;-74
2023/07/07 04:02:47;;;;;;;2.42;2.20;;;27.40;63.40;;;;;;5014190;28;20068;-74
2023/07/07 04:05:13;;;;;;;2.38;2.17;;;27.40;63.40;;;;;;5014079;28;20022;-74
2023/07/07 04:07:38;;;;;;;2.20;2.00;;;27.40;63.40;;;;;;5014121;28;20424;-74
2023/07/07 04:10:06;;;;;;;2.20;1.95;;;27.40;63.40;;;;;;5014069;28;20026;-73
2023/07/07 04:12:32;;;;;;;2.88;2.20;;;27.50;63.50;;;;;;5013814;28;20480;-74
2023/07/07 04:14:58;;;;;;;2.00;1.90;;;27.50;63.50;;;;;;5013823;28;20098;-73
2023/07/07 04:17:24;;;;;;;2.55;2.20;;;27.50;63.40;;;;;;5013737;28;20037;-74
2023/07/07 04:19:50;;;;;;;2.30;2.08;;;27.50;63.40;;;;;;5013815;28;20044;-74
2023/07/07 04:22:15;;;;;;;2.55;2.35;;;27.50;63.40;;;;;;5013897;28;20491;-74
2023/07/07 04:24:41;;;;;;;2.67;2.17;;;27.50;63.30;;;;;;5014187;28;20034;-74
2023/07/07 04:27:07;;;;;;;2.40;2.20;;;27.60;63.40;;;;;;5013977;28;20415;-74
2023/07/07 04:29:32;;;;;;;2.88;2.30;;;27.60;63.30;;;;;;5013694;28;20041;-74
2023/07/07 04:31:59;;;;;;;3.00;2.22;;;27.60;63.30;;;;;;5012714;28;20134;-74
2023/07/07 04:34:27;;;;;;;2.58;2.30;;;27.60;63.30;;;;;;5012715;28;20033;-74
2023/07/07 04:36:53;;;;;;;2.40;2.20;;;27.60;63.30;;;;;;5014113;28;20037;-73
2023/07/07 04:39:18;;;;;;;2.60;2.38;;;27.70;63.40;;;;;;5013562;28;20048;-73
2023/07/07 04:41:44;;;;;;;2.67;2.45;;;27.70;63.40;;;;;;5012710;28;20029;-74
2023/07/07 04:44:10;;;;;;;2.63;2.40;;;27.70;63.40;;;;;;5013293;28;20036;-73
2023/07/07 04:46:38;;;;;;;3.42;2.55;;;27.70;63.40;;;;;;5011972;28;20488;-74
2023/07/07 04:49:09;;;;;;;3.08;2.30;;;27.70;63.40;;;;;;5012492;28;20423;-74
2023/07/07 04:51:41;;;;;;;2.60;2.40;;;27.70;63.40;;;;;;5013750;28;20037;-74
2023/07/07 04:54:11;;;;;;;2.58;2.38;;;27.70;63.40;;;;;;5013963;28;20097;-73
2023/07/07 04:56:36;;;;;;;2.58;2.30;;;27.70;63.40;;;;;;5013190;28;20120;-74
2023/07/07 04:59:03;;;;;;;2.70;2.50;;;27.70;63.30;;;;;;5012151;28;20058;-74
2023/07/07 05:01:30;;;;;;;2.65;2.40;;;27.80;63.30;;;;;;5013614;28;20036;-74
2023/07/07 05:03:58;;;;;;;2.40;2.20;;;27.80;63.30;;;;;;5012025;28;20065;-73
2023/07/07 05:06:27;;;;;;;2.67;2.47;;;27.80;63.30;;;;;;5012675;28;20041;-73
2023/07/07 05:08:53;;;;;;;3.13;2.15;;;27.80;63.30;;;;;;5013119;28;20080;-74
2023/07/07 05:11:21;;;;;;;2.60;2.40;;;27.80;63.30;;;;;;5013091;28;20374;-74
2023/07/07 05:13:48;;;;;;;2.67;2.20;;;27.80;63.20;;;;;;5014215;28;20083;-74
2023/07/07 05:16:16;;;;;;;2.50;2.30;;;27.90;63.20;;;;;;5012961;28;20038;-74
2023/07/07 05:18:41;;;;;;;2.80;2.45;;;27.90;63.10;;;;;;5013452;28;20450;-74
2023/07/07 05:21:09;;;;;;;2.58;2.38;;;27.90;63.10;;;;;;5013420;28;20022;-74
2023/07/07 05:23:35;;;;;;;2.53;2.33;;;28.00;63.00;;;;;;5011610;28;20033;-74
2023/07/07 05:26:01;;;;;;;2.88;2.47;;;28.00;62.90;;;;;;5012864;28;20088;-75
2023/07/07 05:28:27;;;;;;;2.42;2.22;;;28.00;62.90;;;;;;5013573;28;20140;-74
2023/07/07 05:30:52;;;;;;;2.40;2.20;;;28.00;62.80;;;;;;5013251;28;20025;-73
2023/07/07 05:33:20;;;;;;;3.58;2.30;;;28.10;62.80;;;;;;5013355;28;20141;-74
2023/07/07 05:35:47;;;;;;;2.40;2.20;;;28.10;62.80;;;;;;5012845;28;20030;-72
2023/07/07 05:38:13;;;;;;;2.45;2.25;;;28.10;62.80;;;;;;5011491;28;20026;-73
2023/07/07 05:40:42;;;;;;;2.35;2.20;;;28.10;62.80;;;;;;5013186;28;20033;-73
2023/07/07 05:43:08;;;;;;;3.00;2.70;;;28.20;62.80;;;;;;5013050;28;20411;-74
2023/07/07 05:45:34;;;;;;;2.20;2.10;;;28.20;62.80;;;;;;5012680;28;20061;-73
2023/07/07 05:47:59;;;;;;;2.83;2.63;;;28.30;62.70;;;;;;5011701;28;20026;-75
2023/07/07 05:50:25;;;;;;;2.50;2.30;;;28.30;62.70;;;;;;5012834;28;20437;-75
2023/07/07 05:52:51;;;;;;;2.70;2.30;;;28.30;62.70;;;;;;5012602;28;20022;-75
2023/07/07 05:55:32;;;;;;;2.90;2.60;;;28.30;62.70;;;;;;5016783;28;20115;-75
2023/07/07 05:57:59;;;;;;;2.80;2.30;;;28.40;62.70;;;;;;5016839;28;20038;-75
2023/07/07 06:00:27;;;;;;;2.60;2.40;;;28.40;62.60;;;;;;5016476;28;20030;-75
2023/07/07 06:02:53;;;;;;;2.38;2.17;;;28.40;62.60;;;;;;5015168;28;20372;-74
2023/07/07 06:05:19;;;;;;;2.80;2.50;;;28.40;62.60;;;;;;5016340;28;20037;-75
2023/07/07 06:07:46;;;;;;;2.70;2.50;;;28.40;62.50;;;;;;5016304;28;20037;-75
2023/07/07 06:10:12;;;;;;;3.20;2.63;;;28.50;62.50;;;;;;5016395;28;20030;-75
2023/07/07 06:12:38;;;;;;;2.78;2.50;;;28.50;62.50;;;;;;5016669;28;20025;-75
2023/07/07 06:15:05;;;;;;;2.85;2.58;;;28.50;62.50;;;;;;5016630;28;20033;-75
2023/07/07 06:17:31;;;;;;;3.08;2.80;;;28.50;62.50;;;;;;5016187;28;20499;-75
2023/07/07 06:19:56;;;;;;;3.00;2.50;;;28.50;62.50;;;;;;5016196;28;20026;-75
2023/07/07 06:22:22;;;;;;;2.78;2.42;;;28.50;62.40;;;;;;5015972;28;20112;-75
2023/07/07 06:24:48;;;;;;;2.80;2.60;;;28.50;62.40;;;;;;5016148;28;20065;-75
2023/07/07 06:27:14;;;;;;;3.08;2.60;;;28.50;62.40;;;;;;5016179;28;20058;-74
2023/07/07 06:29:40;;;;;;;2.75;2.40;;;28.60;62.50;;;;;;5016074;28;20366;-75
2023/07/07 06:32:06;;;;;;;2.65;2.28;;;28.60;62.50;;;;;;5016015;28;20498;-74
2023/07/07 06:34:31;;;;;;;2.50;2.30;;;28.50;62.40;;;;;;5015927;28;20362;-74
2023/07/07 06:36:59;;;;;;;2.50;2.30;;;28.60;62.50;;;;;;5016114;28;20033;-74
2023/07/07 06:39:26;;;;;;;2.80;2.50;;;28.60;62.50;;;;;;5016207;28;20026;-75
2023/07/07 06:41:56;;;;;;;2.60;2.40;;;28.60;62.50;;;;;;5015753;28;20029;-74
2023/07/07 06:44:22;;;;;;;2.60;2.40;;;28.60;62.50;;;;;;5015988;28;20065;-75
2023/07/07 06:46:47;;;;;;;2.70;2.50;;;28.60;62.50;;;;;;5016153;28;20077;-75
2023/07/07 06:49:13;;;;;;;2.70;2.50;;;28.60;62.50;;;;;;5015524;28;20042;-74
2023/07/07 06:51:39;;;;;;;2.40;2.20;;;28.60;62.60;;;;;;5015625;28;20030;-74
2023/07/07 06:54:05;;;;;;;2.60;2.40;;;28.60;62.60;;;;;;5015530;28;20033;-74
2023/07/07 06:56:30;;;;;;;2.50;2.30;;;28.60;62.50;;;;;;5015505;28;20089;-74
2023/07/07 06:58:56;;;;;;;3.63;2.60;;;28.70;62.60;;;;;;5015209;28;20111;-74
2023/07/07 07:01:22;;;;;;;2.40;2.20;;;28.80;62.60;;;;;;5015435;28;20145;-74
2023/07/07 07:03:47;;;;;;;2.55;2.35;;;28.80;62.50;;;;;;5015196;28;20030;-74
2023/07/07 07:06:13;;;;;;;2.58;2.38;;;28.80;62.50;;;;;;5013862;28;20384;-73
2023/07/07 07:08:39;;;;;;;2.85;2.55;;;28.80;62.40;;;;;;5015240;28;20022;-74
2023/07/07 07:11:06;;;;;;;2.80;2.60;;;28.90;62.50;;;;;;5015146;28;20034;-74
2023/07/07 07:13:32;;;;;;;2.88;2.67;;;28.90;62.50;;;;;;5015214;28;20061;-74
2023/07/07 07:15:58;;;;;;;3.00;2.72;;;28.90;62.50;;;;;;5013733;28;20034;-74
2023/07/07 07:18:23;;;;;;;2.75;2.45;;;28.90;62.60;;;;;;5014863;28;20372;-73
2023/07/07 07:20:50;;;;;;;3.50;2.50;;;28.90;62.60;;;;;;5015429;28;20373;-74
2023/07/07 07:23:16;;;;;;;2.97;2.67;;;28.90;62.50;;;;;;5014884;28;20026;-74
2023/07/07 07:25:43;;;;;;;2.70;2.50;;;28.90;62.50;;;;;;5014855;28;20042;-74
2023/07/07 07:28:09;;;;;;;3.08;2.42;;;28.90;62.50;;;;;;5014847;28;20040;-74
2023/07/07 07:30:35;;;;;;;2.60;2.40;;;29.00;62.50;;;;;;5015189;28;20038;-74
2023/07/07 07:33:03;;;;;;;2.80;2.47;;;29.00;62.50;;;;;;5014595;28;20113;-74
2023/07/07 07:35:29;;;;;;;2.78;2.58;;;29.00;62.50;;;;;;5015005;28;20022;-74
2023/07/07 07:37:55;;;;;;;2.80;2.60;;;29.00;62.50;;;;;;5014418;28;20046;-74
2023/07/07 07:40:23;;;;;;;3.95;2.60;;;29.10;62.60;;;;;;5014799;28;20058;-74
2023/07/07 07:42:52;;;;;;;4.00;2.70;;;29.10;62.60;;;;;;5014703;28;20022;-74
2023/07/07 07:45:19;;;;;;;2.95;2.50;;;29.10;62.50;;;;;;5014334;28;20109;-73
2023/07/07 07:47:45;;;;;;;3.28;2.50;;;29.10;62.50;;;;;;5012719;28;20058;-75
2023/07/07 07:50:12;;;;;;;2.42;2.22;;;29.10;62.50;;;;;;5014147;28;20034;-75
2023/07/07 07:52:38;;;;;;;2.50;2.30;;;29.10;62.40;;;;;;5014511;28;20026;-74
2023/07/07 07:55:04;;;;;;;3.55;2.20;;;29.10;62.40;;;;;;5014286;28;20506;-74
2023/07/07 07:57:29;;;;;;;3.13;2.63;;;29.20;62.40;;;;;;5014479;28;20026;-75
2023/07/07 07:59:55;;;;;;;2.78;2.40;;;29.20;62.30;;;;;;5014306;28;20037;-73
2023/07/07 08:02:21;;;;;;;2.92;2.47;;;29.20;62.30;;;;;;5012895;28;20448;-74
2023/07/07 08:04:46;;;;;;;2.72;2.30;;;29.20;62.30;;;;;;5014267;28;20104;-74
2023/07/07 08:07:12;;;;;;;2.42;2.22;;;29.20;62.30;;;;;;5014518;28;20052;-74
2023/07/07 08:09:37;;;;;;;3.28;2.40;;;29.20;62.20;;;;;;5013354;28;20022;-75
2023/07/07 08:12:03;;;;;;;2.60;2.40;;;29.20;62.30;;;;;;5014555;28;20138;-75
2023/07/07 08:14:31;;;;;;;2.78;2.30;;;29.20;62.20;;;;;;5014250;28;20034;-75
2023/07/07 08:17:10;;;;;;;2.70;2.38;;;29.20;62.20;;;;;;5013941;28;20392;-74
2023/07/07 08:19:38;;;;;;;2.55;2.30;;;29.30;62.20;;;;;;5014344;28;20550;-75
2023/07/07 08:22:07;;;;;;;2.65;2.45;;;29.20;62.10;;;;;;5012890;28;20166;-75
2023/07/07 08:24:46;;;;;;;2.30;2.10;;;29.20;62.10;;;;;;5014489;28;20089;-74
2023/07/07 08:27:13;;;;;;;2.60;2.40;;;29.30;62.10;;;;;;5014129;28;20116;-74
2023/07/07 08:29:40;;;;;;;2.60;2.40;;;29.30;62.10;;;;;;5014224;28;20026;-74
2023/07/07 08:32:07;;;;;;;2.78;2.30;;;29.30;62.10;;;;;;5014169;28;20061;-74
2023/07/07 08:34:33;;;;;;;2.55;2.30;;;29.20;62.00;;;;;;5012670;28;20030;-75
2023/07/07 08:36:59;;;;;;;2.75;2.55;;;29.20;62.00;;;;;;5013756;28;20038;-74
2023/07/07 08:39:28;;;;;;;2.80;2.50;;;29.20;61.90;;;;;;5013853;28;20026;-74
2023/07/07 08:41:59;;;;;;;2.60;2.30;;;29.30;62.00;;;;;;5013576;28;20099;-74
2023/07/07 08:44:26;;;;;;;2.42;2.22;;;29.30;61.90;;;;;;5014017;28;20042;-75
2023/07/07 08:46:58;;;;;;;2.65;2.45;;;29.30;61.90;;;;;;5013957;28;20497;-74
2023/07/07 08:49:29;;;;;;;3.88;2.47;;;29.30;61.70;;;;;;5013653;28;20030;-74
2023/07/07 08:52:28;;;;;;;2.50;2.30;;;29.30;61.70;;;;;;5013572;28;20021;-75
2023/07/07 08:55:18;;;;;;;3.00;2.30;;;29.40;61.70;;;;;;5014203;28;20365;-75
2023/07/07 08:58:06;;;;;;;2.42;2.22;;;29.40;61.50;;;;;;5012386;28;20455;-75
2023/07/07 09:00:54;;;;;;;2.50;2.30;;;29.40;61.40;;;;;;5013423;28;20068;-75
2023/07/07 09:03:45;;;;;;;2.42;2.22;;;29.40;61.40;;;;;;5013800;28;20026;-75
2023/07/07 09:06:46;;;;;;;2.67;2.47;;;29.50;61.40;;;;;;5013713;28;20112;-75
2023/07/07 09:09:20;;;;;;;2.53;2.33;;;29.50;61.20;;;;;;5013310;28;20036;-74
2023/07/07 09:11:49;;;;;;;2.20;2.10;;;29.50;61.20;;;;;;5013912;28;20054;-75
2023/07/07 09:14:15;;;;;;;3.10;2.30;;;29.60;61.30;;;;;;5013305;28;20105;-75
2023/07/07 09:16:42;;;;;;;3.15;2.40;;;29.60;61.10;;;;;;5013557;28;20076;-76
2023/07/07 09:19:15;;;;;;;2.50;2.30;;;29.60;61.10;;;;;;5013514;28;20064;-75
2023/07/07 09:21:55;;;;;;;2.60;2.40;;;29.70;61.10;;;;;;5013807;28;20491;-75
2023/07/07 09:24:35;;;;;;;2.30;2.20;;;29.60;61.00;;;;;;5013751;28;20036;-75
2023/07/07 09:27:12;;;;;;;2.75;2.20;;;29.70;60.90;;;;;;5012059;28;20038;-74
2023/07/07 09:29:39;;;;;;;2.92;2.65;;;29.70;60.80;;;;;;5014862;28;20028;-75
2023/07/07 09:32:05;;;;;;;2.58;2.38;;;29.70;60.80;;;;;;5017206;28;20123;-75
2023/07/07 09:34:33;;;;;;;2.58;2.30;;;29.70;60.80;;;;;;5017017;28;20030;-74
2023/07/07 09:37:34;;;;;;;3.25;2.50;;;29.70;60.70;;;;;;5017189;28;20045;-74
2023/07/07 09:40:26;;;;;;;2.55;2.35;;;29.80;60.70;;;;;;5015381;28;20026;-75
2023/07/07 09:43:00;;;;;;;2.40;2.20;;;29.80;60.60;;;;;;5017137;28;20037;-74
2023/07/07 09:45:32;;;;;;;2.30;2.10;;;29.80;60.60;;;;;;5015480;28;20034;-74
2023/07/07 09:48:14;;;;;;;3.03;2.20;;;29.80;60.50;;;;;;5015720;28;20080;-74
2023/07/07 09:50:44;;;;;;;2.90;2.60;;;29.90;60.50;;;;;;5016834;28;20026;-75
2023/07/07 09:53:16;;;;;;;2.60;2.40;;;29.90;60.40;;;;;;5017167;28;20489;-74
2023/07/07 09:55:42;;;;;;;2.60;2.40;;;30.00;60.40;;;;;;5017142;28;20468;-74
2023/07/07 09:58:11;;;;;;;2.60;2.35;;;30.00;60.30;;;;;;5016661;28;20034;-74
2023/07/07 10:00:38;;;;;;;2.35;2.15;;;30.00;60.20;;;;;;5016720;28;20049;-75
2023/07/07 10:03:34;;;;;;;2.50;2.30;;;30.00;60.20;;;;;;5016563;28;20022;-74
2023/07/07 10:06:03;;;;;;;2.30;2.20;;;30.00;60.10;;;;;;5014659;28;20088;-75
2023/07/07 10:08:29;;;;;;;2.47;2.28;;;30.10;60.20;;;;;;5016586;28;20026;-75
2023/07/07 10:11:09;;;;;;;2.83;2.55;;;30.10;60.10;;;;;;5016604;28;20087;-76
2023/07/07 10:13:35;;;;;;;3.25;2.45;;;30.10;60.00;;;;;;5016609;28;20137;-74
2023/07/07 10:16:06;;;;;;;2.63;2.42;;;30.10;60.00;;;;;;5016864;28;20068;-74
2023/07/07 10:18:33;;;;;;;2.60;2.40;;;30.20;60.00;;;;;;5016916;28;20026;-75
2023/07/07 10:21:03;;;;;;;2.40;2.20;;;30.10;59.90;;;;;;5015352;28;20030;-76
2023/07/07 10:23:29;;;;;;;3.28;2.40;;;30.20;59.90;;;;;;5016498;28;20108;-76
2023/07/07 10:25:55;;;;;;;2.63;2.40;;;30.20;59.80;;;;;;5016245;28;20487;-75
2023/07/07 10:28:22;;;;;;;2.60;2.40;;;30.20;59.80;;;;;;5016477;28;20053;-75
2023/07/07 10:30:48;;;;;;;2.58;2.13;;;30.30;59.90;;;;;;5016572;28;20033;-74
2023/07/07 10:33:16;;;;;;;2.60;2.40;;;30.30;59.80;;;;;;5016188;28;20022;-75
2023/07/07 10:35:43;;;;;;;2.50;2.30;;;30.30;59.70;;;;;;5014941;28;20027;-76
2023/07/07 10:38:10;;;;;;;3.05;2.45;;;30.30;59.70;;;;;;5015863;28;20125;-75
2023/07/07 10:40:37;;;;;;;2.50;2.30;;;30.40;59.70;;;;;;5014487;28;20088;-74
2023/07/07 10:43:05;;;;;;;2.42;2.22;;;30.40;59.60;;;;;;5016138;28;20109;-75
2023/07/07 10:45:31;;;;;;;2.72;2.53;;;30.40;59.50;;;;;;5015892;28;20088;-75
2023/07/07 10:47:57;;;;;;;2.20;2.00;;;30.40;59.50;;;;;;5015894;28;20065;-74
2023/07/07 10:50:27;;;;;;;3.05;2.35;;;30.40;59.50;;;;;;5014618;28;20097;-75
2023/07/07 10:53:23;;;;;;;2.85;2.42;;;30.40;59.50;;;;;;5015592;28;20050;-74
2023/07/07 10:55:54;;;;;;;2.60;2.40;;;30.40;59.50;;;;;;5016019;28;20061;-75
2023/07/07 10:58:38;;;;;;;3.10;2.80;;;30.30;59.50;;;;;;5015653;28;20041;-75
2023/07/07 11:01:25;;;;;;;2.45;2.25;;;30.30;59.60;;;;;;5015864;28;20022;-75
2023/07/07 11:04:23;;;;;;;3.13;2.55;;;30.20;59.70;;;;;;5015760;28;20053;-75
2023/07/07 11:07:26;;;;;;;2.80;2.45;;;30.10;59.80;;;;;;5008138;28;20042;-75
2023/07/07 11:10:36;;;;;;;2.75;2.50;;;30.00;59.90;;;;;;5015336;28;20044;-74
2023/07/07 11:13:26;;;;;;;2.65;2.45;;;30.00;60.00;;;;;;5015571;28;20179;-74
2023/07/07 11:16:03;;;;;;;2.55;2.35;;;29.90;60.10;;;;;;5015208;28;20483;-74
2023/07/07 11:18:37;;;;;;;2.40;2.20;;;29.90;60.10;;;;;;5015545;28;20065;-75
2023/07/07 11:21:23;;;;;;;2.60;2.40;;;29.90;60.10;;;;;;5015409;28;20105;-74
2023/07/07 11:24:17;;;;;;;2.72;2.50;;;30.00;60.10;;;;;;5014366;28;20423;-76
2023/07/07 11:26:46;;;;;;;2.53;2.33;;;30.00;60.00;;;;;;5015550;28;20038;-75
2023/07/07 11:29:12;;;;;;;3.35;2.63;;;30.10;60.00;;;;;;5015026;28;20034;-76
2023/07/07 11:31:38;;;;;;;2.90;2.63;;;30.20;60.00;;;;;;5014833;28;20022;-76
2023/07/07 11:34:28;;;;;;;3.00;2.67;;;30.20;59.90;;;;;;5015074;28;20539;-76
2023/07/07 11:37:32;;;;;;;2.95;2.65;;;30.30;60.00;;;;;;5013457;28;20372;-75
2023/07/07 11:40:00;;;;;;;2.75;2.55;;;30.40;60.20;;;;;;5014859;28;20040;-75
2023/07/07 11:42:42;;;;;;;3.05;2.65;;;30.40;60.00;;;;;;5013611;28;20037;-75
2023/07/07 11:45:29;;;;;;;2.70;2.50;;;30.50;60.00;;;;;;5014867;28;20524;-75
2023/07/07 11:48:33;;;;;;;2.85;2.60;;;30.50;60.00;;;;;;5014842;28;20061;-75
2023/07/07 11:51:26;;;;;;;2.80;2.60;;;30.60;59.90;;;;;;5010454;28;20038;-75
2023/07/07 11:53:52;;;;;;;2.72;2.53;;;30.70;59.80;;;;;;5015045;28;20022;-75
2023/07/07 11:56:39;;;;;;;2.67;2.47;;;30.80;59.80;;;;;;5014712;28;20026;-75
2023/07/07 11:59:29;;;;;;;2.90;2.70;;;30.80;59.70;;;;;;5015161;28;20474;-75
2023/07/07 12:01:57;;;;;;;2.85;2.60;;;30.80;59.70;;;;;;5012913;28;20541;-75
2023/07/07 12:04:43;;;;;;;2.83;2.60;;;30.80;59.70;;;;;;5014533;28;20468;-74
2023/07/07 12:07:22;;;;;;;5.15;2.65;;;30.80;59.80;;;;;;5014910;28;20034;-74
2023/07/07 12:10:01;;;;;;;3.10;2.80;;;30.70;59.90;;;;;;5015009;28;20033;-74
2023/07/07 12:13:01;;;;;;;3.13;2.83;;;30.60;60.00;;;;;;5014966;28;20076;-74
2023/07/07 12:15:37;;;;;;;2.90;2.60;;;30.60;60.00;;;;;;5014862;28;20026;-74
2023/07/07 12:18:19;;;;;;;2.70;2.50;;;30.50;60.10;;;;;;5014660;28;20026;-74
2023/07/07 12:20:55;;;;;;;3.25;2.70;;;30.40;60.20;;;;;;5014275;28;20029;-74
2023/07/07 12:23:29;;;;;;;2.72;2.53;;;30.30;60.30;;;;;;5012937;28;20034;-75
2023/07/07 12:26:09;;;;;;;2.97;2.67;;;30.20;60.50;;;;;;5014064;28;20022;-74
2023/07/07 12:28:35;;;;;;;3.03;2.60;;;30.10;60.60;;;;;;5013985;28;20022;-74
2023/07/07 12:31:02;;;;;;;3.00;2.65;;;30.00;60.80;;;;;;5013585;28;20108;-73
2023/07/07 12:33:38;;;;;;;3.03;2.75;;;30.00;61.20;;;;;;5014027;28;20033;-74
2023/07/07 12:36:07;;;;;;;3.10;2.70;;;29.80;61.20;;;;;;5013929;28;20030;-74
2023/07/07 12:38:35;;;;;;;2.70;2.50;;;29.80;61.50;;;;;;5012389;28;20030;-75
2023/07/07 12:41:06;;;;;;;3.40;2.72;;;29.70;61.80;;;;;;5012354;28;20083;-74
2023/07/07 12:43:44;;;;;;;3.00;2.70;;;29.60;62.00;;;;;;5013928;28;20025;-74
2023/07/07 12:46:21;;;;;;;3.00;2.70;;;29.50;62.30;;;;;;5013551;28;20500;-74
2023/07/07 12:48:48;;;;;;;3.08;2.80;;;29.50;62.60;;;;;;5012508;28;20465;-74
2023/07/07 12:51:17;;;;;;;4.03;2.80;;;29.40;62.70;;;;;;5013414;28;20036;-74
2023/07/07 12:53:53;;;;;;;2.75;2.55;;;29.30;62.80;;;;;;5012445;28;20026;-75
2023/07/07 12:56:21;;;;;;;3.50;2.63;;;29.30;63.10;;;;;;5013771;28;20401;-75
2023/07/07 12:58:49;;;;;;;2.65;2.42;;;29.20;63.10;;;;;;5014271;28;20457;-75
2023/07/07 13:01:15;;;;;;;2.78;2.58;;;29.20;63.30;;;;;;5012944;28;20026;-74
2023/07/07 13:04:00;;;;;;;2.38;2.17;;;29.20;63.50;;;;;;5012735;28;20495;-74
2023/07/07 13:06:33;;;;;;;2.42;2.22;;;29.10;64.00;;;;;;5013231;28;20026;-74